TimeEDT,TemperatureF,Dew PointF,Humidity,Sea Level PressureIn,VisibilityMPH,Wind Direction,Wind SpeedMPH,Gust SpeedMPH,PrecipitationIn,Events,Conditions,WindDirDegrees,DateUTC
12:53 AM,68.0,62.1,81,30.12,10.0,SSW,4.6,-,N/A,,Clear,210,2013-10-04 04:53:00
1:53 AM,64.9,62.1,90,30.13,10.0,SW,3.5,-,N/A,,Clear,220,2013-10-04 05:53:00
2:53 AM,64.0,62.1,93,30.12,10.0,SW,3.5,-,N/A,,Clear,230,2013-10-04 06:53:00
3:53 AM,63.0,61.0,93,30.12,8.0,WSW,3.5,-,N/A,,Clear,250,2013-10-04 07:53:00
4:53 AM,63.0,62.1,97,30.12,5.0,Calm,Calm,-,N/A,,Clear,0,2013-10-04 08:53:00
5:53 AM,63.0,61.0,93,30.12,5.0,Calm,Calm,-,N/A,,Clear,0,2013-10-04 09:53:00
6:22 AM,62.6,60.8,94,30.13,1.8,Calm,Calm,-,N/A,,Clear,0,2013-10-04 10:22:00
6:49 AM,62.6,60.8,94,30.13,3.0,Calm,Calm,-,N/A,,Clear,0,2013-10-04 10:49:00
6:53 AM,61.0,60.1,97,30.14,4.0,Calm,Calm,-,N/A,,Clear,0,2013-10-04 10:53:00
7:53 AM,62.1,60.1,93,30.15,3.0,WSW,3.5,-,N/A,,Clear,240,2013-10-04 11:53:00
8:06 AM,62.6,60.8,94,30.14,2.0,Calm,Calm,-,N/A,,Clear,0,2013-10-04 12:06:00
8:14 AM,62.6,62.6,100,30.14,1.5,Calm,Calm,-,N/A,,Clear,0,2013-10-04 12:14:00
8:32 AM,64.4,62.6,94,30.15,3.0,WSW,3.5,-,N/A,,Clear,240,2013-10-04 12:32:00
8:53 AM,66.9,64.0,90,30.17,5.0,SW,4.6,-,N/A,,Clear,230,2013-10-04 12:53:00
9:53 AM,72.0,64.0,76,30.17,10.0,WSW,3.5,-,N/A,,Clear,250,2013-10-04 13:53:00
10:53 AM,78.1,64.0,62,30.17,9.0,Calm,Calm,-,N/A,,Clear,0,2013-10-04 14:53:00
11:53 AM,81.0,62.1,52,30.16,9.0,WSW,4.6,-,N/A,,Clear,250,2013-10-04 15:53:00
12:15 PM,80.6,60.8,51,30.16,5.0,Calm,Calm,-,N/A,,Haze,0,2013-10-04 16:15:00
12:53 PM,82.9,60.1,46,30.14,10.0,Calm,Calm,-,N/A,,Clear,0,2013-10-04 16:53:00
1:53 PM,84.0,61.0,46,30.12,10.0,Variable,3.5,-,N/A,,Partly Cloudy,0,2013-10-04 17:53:00
2:53 PM,84.9,60.1,43,30.10,10.0,WNW,5.8,-,N/A,,Scattered Clouds,300,2013-10-04 18:53:00
3:53 PM,87.1,60.1,40,30.09,10.0,West,4.6,-,N/A,,Clear,270,2013-10-04 19:53:00
4:53 PM,84.9,59.0,41,30.09,7.0,Calm,Calm,-,N/A,,Clear,0,2013-10-04 20:53:00
5:21 PM,84.2,60.8,45,30.08,1.8,Calm,Calm,-,N/A,,Haze,0,2013-10-04 21:21:00
5:36 PM,84.2,60.8,45,30.08,10.0,West,3.5,-,N/A,,Clear,260,2013-10-04 21:36:00
5:53 PM,84.0,60.1,44,30.08,6.0,West,4.6,-,N/A,,Haze,260,2013-10-04 21:53:00
6:53 PM,77.0,63.0,62,30.10,10.0,Calm,Calm,-,N/A,,Clear,0,2013-10-04 22:53:00
7:53 PM,72.0,63.0,73,30.11,10.0,Calm,Calm,-,N/A,,Clear,0,2013-10-04 23:53:00
8:53 PM,71.1,63.0,75,30.12,10.0,Calm,Calm,-,N/A,,Clear,0,2013-10-05 00:53:00
9:53 PM,70.0,63.0,78,30.13,10.0,Calm,Calm,-,N/A,,Clear,0,2013-10-05 01:53:00
10:53 PM,66.9,63.0,87,30.13,10.0,Calm,Calm,-,N/A,,Clear,0,2013-10-05 02:53:00
11:53 PM,66.9,63.0,87,30.12,10.0,Calm,Calm,-,N/A,,Clear,0,2013-10-05 03:53:00